MacAlister, Canada
Current Conditions -  °F | °C
As of 1:00 PM on Tuesday 27 Jan 2015 (Local Time) from CYWL Reporting Station
Broken Clouds Broken Clouds  
Wind Chill: 39°   Ceiling: 4000
Heat Index: 43°   Visibility: 15mi
Dew Point: 30°   Wind: 6mph
Humidity: 61%   Direction: NA
Pressure: 29.88"   Gusts: NA
Location:  52.45°N, 122.4°W
Report Text: CYWL 272100Z VRB05KT 15SM BKN040 BKN200 06/M01 A2988 RMK SC5CI1 SLP142
Loading
Personal Weather Stations






























Interactive Weather Map New forecast layout! Learn more

10-Day Weather Forecast

Advertisements
Track Severe Weather on mobile